Time;durP1;ratioP1;P1;durP2;ratioP2;P2;SDS_P1;SDS_P2;PMS_P1;PMS_P2;Temp;Humidity;BMP_temperature;BMP_pressure;BME280_temperature;BME280_humidity;BME280_pressure;Samples;Min_cycle;Max_cycle;Signal;HPM_P1;HPM_P2
2021/03/05 00:02:56;;;;;;;7.47;1.90;;;;;3.40;101879.00;;;;9788241;30;20254;-77
2021/03/05 00:08:09;;;;;;;7.50;2.30;;;;;3.30;101879.00;;;;9809632;30;20228;-76
2021/03/05 00:13:12;;;;;;;9.87;3.20;;;;;3.30;101886.00;;;;9816625;30;20245;-77
2021/03/05 00:18:14;;;;;;;10.03;2.90;;;;;3.30;101897.00;;;;9787849;30;20300;-76
2021/03/05 00:23:16;;;;;;;10.73;3.50;;;;;3.20;101893.00;;;;9747485;30;20217;-77
2021/03/05 00:28:18;;;;;;;15.57;5.00;;;;;3.20;101904.00;;;;9750606;30;20245;-76
2021/03/05 00:33:20;;;;;;;22.27;4.67;;;;;3.20;101903.00;;;;9750563;30;20207;-76
2021/03/05 00:38:28;;;;;;;14.03;4.60;;;;;3.20;101908.00;;;;9777683;30;20226;-77
2021/03/05 00:43:30;;;;;;;11.90;4.67;;;;;3.20;101909.00;;;;9786623;30;20217;-77
2021/03/05 00:48:31;;;;;;;14.10;5.43;;;;;3.20;101915.00;;;;9771272;30;20205;-77
2021/03/05 00:53:36;;;;;;;16.13;5.30;;;;;3.20;101913.00;;;;9792583;30;20671;-77
2021/03/05 00:58:38;;;;;;;15.17;4.30;;;;;3.10;101924.00;;;;9750086;30;20223;-77
2021/03/05 01:03:43;;;;;;;14.40;5.17;;;;;3.10;101922.00;;;;9759220;30;20205;-77
2021/03/05 01:08:53;;;;;;;11.13;4.40;;;;;3.10;101924.00;;;;9815305;30;20201;-77
2021/03/05 01:13:54;;;;;;;25.30;6.20;;;;;3.10;101938.00;;;;9780468;30;20233;-77
2021/03/05 01:18:56;;;;;;;16.67;5.40;;;;;3.10;101935.00;;;;9748987;30;20314;-76
2021/03/05 01:23:58;;;;;;;15.40;5.07;;;;;3.10;101945.00;;;;9763407;30;20202;-77
2021/03/05 01:28:59;;;;;;;16.00;6.57;;;;;3.00;101935.00;;;;9763013;30;20210;-77
2021/03/05 01:34:06;;;;;;;13.37;5.67;;;;;3.00;101929.00;;;;9779861;30;20209;-77
2021/03/05 01:39:10;;;;;;;11.53;5.93;;;;;3.00;101933.00;;;;9814122;30;20225;-77
2021/03/05 01:44:13;;;;;;;10.93;4.80;;;;;3.00;101929.00;;;;9808006;30;20225;-77
2021/03/05 01:49:14;;;;;;;10.93;5.00;;;;;3.00;101923.00;;;;9798713;30;20941;-77
2021/03/05 01:54:15;;;;;;;10.97;5.87;;;;;3.00;101932.00;;;;9797825;30;20244;-77
2021/03/05 01:59:31;;;;;;;17.87;5.90;;;;;3.00;101922.00;;;;9812517;30;20772;-77
2021/03/05 02:04:37;;;;;;;10.33;5.03;;;;;3.00;101926.00;;;;9750051;30;20237;-76
2021/03/05 02:09:38;;;;;;;10.90;5.13;;;;;3.00;101931.00;;;;9783874;30;20646;-76
2021/03/05 02:14:39;;;;;;;17.83;5.37;;;;;3.00;101934.00;;;;9760929;30;20653;-76
2021/03/05 02:20:03;;;;;;;12.90;5.70;;;;;3.00;101936.00;;;;9776497;30;20221;-76
2021/03/05 02:25:35;;;;;;;12.43;5.93;;;;;3.00;101940.00;;;;9761218;30;20571;-76
2021/03/05 02:31:05;;;;;;;12.73;5.90;;;;;3.00;101939.00;;;;9761122;30;20288;-76
2021/03/05 02:36:09;;;;;;;10.13;5.67;;;;;3.00;101929.00;;;;9796604;30;20244;-76
2021/03/05 02:41:11;;;;;;;17.00;5.87;;;;;2.90;101938.00;;;;9753192;30;20297;-76
2021/03/05 02:46:13;;;;;;;13.93;5.80;;;;;2.90;101930.00;;;;9797417;30;20244;-76
2021/03/05 02:51:17;;;;;;;14.17;6.37;;;;;2.90;101935.00;;;;9767689;30;20293;-76
2021/03/05 02:56:20;;;;;;;13.50;5.23;;;;;2.90;101946.00;;;;9796517;30;20678;-76
2021/03/05 03:01:24;;;;;;;13.37;5.80;;;;;2.90;101954.00;;;;9789958;30;20241;-76
2021/03/05 03:06:26;;;;;;;13.50;5.13;;;;;2.90;101957.00;;;;9796156;30;20205;-76
2021/03/05 03:11:28;;;;;;;16.63;5.40;;;;;2.90;101959.00;;;;9759251;30;20234;-76
2021/03/05 03:16:30;;;;;;;17.47;4.70;;;;;2.90;101959.00;;;;9760032;30;20285;-76
2021/03/05 03:21:32;;;;;;;19.13;5.63;;;;;2.90;101966.00;;;;9784643;30;20300;-76
2021/03/05 03:26:36;;;;;;;17.50;5.07;;;;;2.90;101980.00;;;;9824886;30;20238;-76
2021/03/05 03:31:41;;;;;;;19.37;5.47;;;;;2.90;101981.00;;;;9782385;30;20198;-76
2021/03/05 03:36:43;;;;;;;11.10;5.10;;;;;2.90;101991.00;;;;9766731;30;20239;-76
2021/03/05 03:41:46;;;;;;;15.43;5.53;;;;;2.90;101992.00;;;;9781539;30;20941;-76
2021/03/05 03:46:49;;;;;;;12.47;5.57;;;;;2.90;101990.00;;;;9795657;30;20205;-76
2021/03/05 03:52:04;;;;;;;17.00;6.07;;;;;2.90;101987.00;;;;9763652;30;20206;-76
2021/03/05 03:57:08;;;;;;;15.10;6.20;;;;;2.80;101991.00;;;;9745260;30;20250;-77
2021/03/05 04:02:11;;;;;;;22.00;8.03;;;;;2.80;102003.00;;;;9790239;30;20267;-76
2021/03/05 04:07:13;;;;;;;17.50;6.80;;;;;2.70;101999.00;;;;9774799;30;20275;-76
2021/03/05 04:12:15;;;;;;;18.63;7.20;;;;;2.50;102008.00;;;;9766231;30;20272;-76
2021/03/05 04:17:17;;;;;;;16.77;7.10;;;;;2.30;102003.00;;;;9795012;30;20236;-76
2021/03/05 04:22:18;;;;;;;21.30;8.07;;;;;2.10;102015.00;;;;9769914;30;20304;-76
2021/03/05 04:27:20;;;;;;;13.73;8.13;;;;;2.00;102019.00;;;;9786676;30;20209;-76
2021/03/05 04:32:21;;;;;;;13.60;7.50;;;;;1.90;102023.00;;;;9772195;30;20735;-76
2021/03/05 04:37:23;;;;;;;14.00;7.53;;;;;2.00;102040.00;;;;9816158;30;20563;-76
2021/03/05 04:42:25;;;;;;;18.73;8.27;;;;;1.90;102046.00;;;;9786068;30;20222;-76
2021/03/05 04:47:26;;;;;;;20.57;9.83;;;;;1.90;102053.00;;;;9815187;30;20251;-77
2021/03/05 04:52:28;;;;;;;20.73;8.90;;;;;2.00;102055.00;;;;9757459;30;20288;-76
2021/03/05 04:57:29;;;;;;;20.73;9.83;;;;;2.10;102059.00;;;;9802242;30;20229;-76
2021/03/05 05:02:31;;;;;;;17.60;10.40;;;;;2.30;102064.00;;;;9815489;30;20233;-76
2021/03/05 05:07:32;;;;;;;19.10;10.37;;;;;2.30;102067.00;;;;9785449;30;20213;-76
2021/03/05 05:12:34;;;;;;;21.20;10.60;;;;;2.40;102072.00;;;;9779420;30;20299;-76
2021/03/05 05:17:36;;;;;;;17.97;10.87;;;;;2.30;102085.00;;;;9749235;30;20218;-77
2021/03/05 05:22:38;;;;;;;16.63;10.60;;;;;2.20;102081.00;;;;9778420;30;20294;-76
2021/03/05 05:27:39;;;;;;;18.40;11.63;;;;;2.00;102091.00;;;;9778150;30;20202;-76
2021/03/05 05:32:40;;;;;;;20.30;11.77;;;;;1.80;102088.00;;;;9777649;30;20225;-76
2021/03/05 05:37:42;;;;;;;19.93;12.00;;;;;1.60;102110.00;;;;9754502;30;20226;-76
2021/03/05 05:42:47;;;;;;;21.37;12.43;;;;;1.50;102110.00;;;;9784194;30;20226;-76
2021/03/05 05:47:49;;;;;;;20.00;14.00;;;;;1.30;102119.00;;;;9798308;30;20205;-76
2021/03/05 05:52:54;;;;;;;21.70;13.10;;;;;1.20;102113.00;;;;9784083;30;20202;-76
2021/03/05 05:57:56;;;;;;;18.07;11.97;;;;;1.10;102122.00;;;;9787517;30;20229;-76
2021/03/05 06:03:11;;;;;;;19.40;12.00;;;;;1.00;102131.00;;;;9811755;30;20232;-76
2021/03/05 06:08:13;;;;;;;23.17;12.70;;;;;0.90;102141.00;;;;9783440;30;20244;-76
2021/03/05 06:13:15;;;;;;;20.57;12.43;;;;;0.80;102134.00;;;;9782835;30;20740;-76
2021/03/05 06:18:30;;;;;;;24.10;12.87;;;;;0.80;102143.00;;;;9797518;30;20217;-76
2021/03/05 06:23:34;;;;;;;24.90;14.20;;;;;0.70;102144.00;;;;9797554;30;20201;-76
2021/03/05 06:28:35;;;;;;;22.33;14.13;;;;;0.70;102157.00;;;;9807227;30;20662;-76
2021/03/05 06:33:37;;;;;;;23.00;13.93;;;;;0.70;102163.00;;;;9782439;30;20288;-76
2021/03/05 06:38:44;;;;;;;23.57;14.90;;;;;0.70;102170.00;;;;9826528;30;20237;-76
2021/03/05 06:43:51;;;;;;;24.60;13.43;;;;;0.70;102175.00;;;;9781616;30;20291;-76
2021/03/05 06:48:53;;;;;;;28.37;14.80;;;;;0.80;102185.00;;;;9782316;30;20209;-76
2021/03/05 06:54:13;;;;;;;25.20;14.57;;;;;0.90;102192.00;;;;9767359;30;20304;-76
2021/03/05 06:59:17;;;;;;;24.97;14.60;;;;;1.00;102204.00;;;;9811640;30;20304;-76
2021/03/05 07:04:24;;;;;;;25.97;14.03;;;;;1.10;102207.00;;;;9781482;30;20202;-76
2021/03/05 07:09:29;;;;;;;26.83;15.90;;;;;1.40;102213.00;;;;9811303;30;20206;-76
2021/03/05 07:14:32;;;;;;;24.77;14.50;;;;;1.60;102230.00;;;;9781482;30;20236;-76
2021/03/05 07:19:36;;;;;;;26.90;13.37;;;;;1.80;102228.00;;;;9781796;30;20295;-76
2021/03/05 07:24:38;;;;;;;26.40;12.83;;;;;2.10;102246.00;;;;9781436;30;20283;-76
2021/03/05 07:29:44;;;;;;;20.53;12.47;;;;;2.40;102244.00;;;;9795816;30;20745;-76
2021/03/05 07:35:03;;;;;;;18.50;11.20;;;;;2.90;102259.00;;;;9802271;30;20209;-76
2021/03/05 07:40:16;;;;;;;17.77;9.90;;;;;3.10;102267.00;;;;9781461;30;20222;-76
2021/03/05 07:45:18;;;;;;;14.33;9.73;;;;;3.30;102275.00;;;;9781498;30;20275;-76
2021/03/05 07:50:24;;;;;;;14.10;8.47;;;;;3.50;102285.00;;;;9796075;30;20740;-77
2021/03/05 07:55:37;;;;;;;15.77;9.07;;;;;3.60;102290.00;;;;9796860;30;20246;-77
2021/03/05 08:00:48;;;;;;;11.90;7.67;;;;;3.80;102294.00;;;;9766630;30;20218;-77
2021/03/05 08:05:54;;;;;;;11.03;7.37;;;;;4.00;102304.00;;;;9801664;30;20260;-77
2021/03/05 08:11:04;;;;;;;14.73;7.70;;;;;4.20;102307.00;;;;9755459;30;20373;-77
2021/03/05 08:16:37;;;;;;;15.77;7.63;;;;;4.50;102306.00;;;;9803789;30;20273;-77
2021/03/05 08:21:48;;;;;;;9.40;6.37;;;;;4.90;102321.00;;;;9773363;30;20276;-77
2021/03/05 08:27:11;;;;;;;16.60;7.50;;;;;5.20;102325.00;;;;9788735;30;20239;-77
2021/03/05 08:32:30;;;;;;;9.47;5.93;;;;;5.40;102315.00;;;;9783891;30;20316;-77
2021/03/05 08:37:33;;;;;;;10.00;5.50;;;;;5.60;102317.00;;;;9765901;30;20198;-75
2021/03/05 08:42:35;;;;;;;8.50;5.73;;;;;5.80;102315.00;;;;9750302;30;20655;-75
2021/03/05 08:47:40;;;;;;;9.03;5.80;;;;;6.00;102308.00;;;;9765285;30;20598;-77
2021/03/05 08:52:43;;;;;;;7.37;4.80;;;;;6.50;102310.00;;;;9735744;30;20226;-75
2021/03/05 08:57:52;;;;;;;7.20;4.50;;;;;6.70;102314.00;;;;9743153;30;20399;-76
2021/03/05 09:03:04;;;;;;;5.53;4.10;;;;;6.70;102309.00;;;;9799749;30;20201;-76
2021/03/05 09:08:07;;;;;;;4.17;3.40;;;;;6.80;102297.00;;;;9785185;30;20570;-76
2021/03/05 09:13:10;;;;;;;4.87;3.47;;;;;7.00;102309.00;;;;9785261;30;20237;-76
2021/03/05 09:18:19;;;;;;;5.10;3.37;;;;;7.20;102305.00;;;;9799892;30;20225;-76
2021/03/05 09:23:23;;;;;;;6.67;3.50;;;;;7.30;102314.00;;;;9800018;30;20205;-76
2021/03/05 09:28:34;;;;;;;4.27;3.17;;;;;7.50;102319.00;;;;9799869;30;20205;-76
2021/03/05 09:33:37;;;;;;;5.20;2.87;;;;;7.50;102311.00;;;;9799064;30;20261;-76
2021/03/05 09:38:40;;;;;;;3.30;2.57;;;;;7.70;102323.00;;;;9755726;30;20658;-76
2021/03/05 09:43:43;;;;;;;5.07;2.70;;;;;7.70;102318.00;;;;9799109;30;20754;-76
2021/03/05 09:48:45;;;;;;;3.53;2.50;;;;;7.80;102319.00;;;;9756651;30;20241;-76
2021/03/05 09:53:53;;;;;;;5.87;3.10;;;;;8.00;102329.00;;;;9799071;30;20618;-76
2021/03/05 09:59:02;;;;;;;4.20;2.80;;;;;8.30;102331.00;;;;9779477;30;20929;-76
2021/03/05 10:04:05;;;;;;;6.30;3.33;;;;;8.60;102336.00;;;;9772083;30;20349;-77
2021/03/05 10:09:15;;;;;;;5.13;2.93;;;;;8.70;102335.00;;;;9783530;30;20206;-76
2021/03/05 10:14:24;;;;;;;6.07;2.97;;;;;8.40;102340.00;;;;9812655;30;20234;-76
2021/03/05 10:19:29;;;;;;;5.60;2.90;;;;;8.40;102340.00;;;;9779199;30;20252;-76
2021/03/05 10:24:30;;;;;;;4.73;2.87;;;;;8.40;102340.00;;;;9797764;30;20225;-76
2021/03/05 10:29:41;;;;;;;4.63;3.20;;;;;9.40;102330.00;;;;9747615;30;20322;-76
2021/03/05 10:34:45;;;;;;;6.83;3.30;;;;;10.30;102328.00;;;;9763078;30;20210;-76
2021/03/05 10:39:48;;;;;;;5.23;3.10;;;;;10.80;102337.00;;;;9768726;30;20221;-76
2021/03/05 13:04:19;;;;;;;3.07;1.70;;;;;10.30;102364.00;;;;10495858;27;20587;-76
2021/03/05 13:09:20;;;;;;;2.67;1.47;;;;;10.20;102355.00;;;;10498777;28;20318;-76
2021/03/05 13:14:22;;;;;;;2.03;1.37;;;;;10.40;102355.00;;;;10452144;28;20719;-75
2021/03/05 13:19:23;;;;;;;4.33;1.43;;;;;10.60;102358.00;;;;10473141;28;20198;-75
2021/03/05 13:24:25;;;;;;;3.10;1.70;;;;;10.80;102350.00;;;;10456306;28;20186;-75
2021/03/05 13:29:26;;;;;;;1.73;1.23;;;;;10.90;102360.00;;;;10473476;28;20197;-75
2021/03/05 13:34:28;;;;;;;2.83;1.50;;;;;10.60;102360.00;;;;10472550;28;20255;-75
2021/03/05 13:39:30;;;;;;;1.90;1.20;;;;;10.60;102365.00;;;;10499612;28;20725;-75
2021/03/05 13:44:31;;;;;;;4.63;1.60;;;;;10.70;102366.00;;;;10472728;28;20204;-75
2021/03/05 13:49:48;;;;;;;3.63;1.20;;;;;10.90;102371.00;;;;10466077;28;20281;-76
2021/03/05 13:54:49;;;;;;;2.43;1.27;;;;;11.00;102368.00;;;;10484832;28;20197;-76
2021/03/05 13:59:51;;;;;;;1.80;1.40;;;;;10.90;102367.00;;;;10496429;28;20220;-76
2021/03/05 14:04:52;;;;;;;1.90;1.37;;;;;11.10;102362.00;;;;10461550;28;20591;-76
2021/03/05 14:09:54;;;;;;;2.97;1.17;;;;;11.60;102370.00;;;;10481832;28;20201;-76
2021/03/05 14:14:55;;;;;;;2.60;1.20;;;;;11.80;102375.00;;;;10448349;28;20206;-76
2021/03/05 14:20:09;;;;;;;3.47;1.30;;;;;12.40;102374.00;;;;10428566;28;20198;-76
2021/03/05 14:25:11;;;;;;;2.63;1.10;;;;;12.60;102371.00;;;;10443109;28;20591;-76
2021/03/05 14:30:13;;;;;;;1.33;1.00;;;;;13.50;102371.00;;;;10443694;28;20213;-77
2021/03/05 14:35:16;;;;;;;2.00;1.07;;;;;13.60;102376.00;;;;10438467;28;20605;-76
2021/03/05 14:40:17;;;;;;;1.40;0.93;;;;;13.50;102377.00;;;;10428215;28;20268;-75
2021/03/05 14:45:19;;;;;;;1.97;1.23;;;;;13.10;102378.00;;;;10414387;28;20202;-77
2021/03/05 14:50:20;;;;;;;2.03;1.10;;;;;13.00;102389.00;;;;10456818;28;20186;-76
2021/03/05 14:55:23;;;;;;;2.33;1.00;;;;;14.00;102370.00;;;;10462040;28;20186;-77
2021/03/05 15:00:25;;;;;;;2.20;1.43;;;;;15.20;102371.00;;;;10438135;28;20225;-79
2021/03/05 15:05:29;;;;;;;5.40;1.40;;;;;15.10;102387.00;;;;10457675;28;20224;-77
2021/03/05 15:10:31;;;;;;;2.87;1.50;;;;;13.00;102352.00;;;;10468456;28;20194;-76
2021/03/05 15:15:33;;;;;;;2.50;1.33;;;;;13.10;102360.00;;;;10474370;28;20186;-78
2021/03/05 15:20:34;;;;;;;2.83;1.20;;;;;13.30;102341.00;;;;10442618;28;20284;-77
2021/03/05 15:25:36;;;;;;;4.60;1.07;;;;;13.40;102373.00;;;;10416408;28;20194;-76
2021/03/05 15:30:38;;;;;;;3.07;1.33;;;;;13.80;102356.00;;;;10426174;28;20250;-74
2021/03/05 15:35:40;;;;;;;3.07;1.63;;;;;13.40;102376.00;;;;10458908;28;20913;-76
2021/03/05 15:40:41;;;;;;;3.13;1.03;;;;;10.50;102387.00;;;;10407280;28;20194;-75
2021/03/05 15:45:42;;;;;;;1.40;0.80;;;;;10.50;102391.00;;;;10420349;28;20202;-75
2021/03/05 15:50:45;;;;;;;3.53;1.30;;;;;9.50;102402.00;;;;10398382;28;20732;-75
2021/03/05 15:55:46;;;;;;;2.47;1.20;;;;;9.20;102391.00;;;;10426695;28;20213;-74
2021/03/05 16:00:49;;;;;;;2.40;1.10;;;;;8.60;102404.00;;;;10443321;28;20277;-75
2021/03/05 16:05:50;;;;;;;2.80;0.90;;;;;7.80;102412.00;;;;10456524;28;20551;-74
2021/03/05 16:10:52;;;;;;;2.17;1.00;;;;;7.40;102419.00;;;;10444947;28;20750;-75
2021/03/05 16:15:54;;;;;;;2.80;1.20;;;;;6.90;102423.00;;;;10449310;28;20665;-74
2021/03/05 16:20:55;;;;;;;3.10;1.10;;;;;6.60;102418.00;;;;10438675;28;20194;-75
2021/03/05 16:25:56;;;;;;;2.83;1.53;;;;;6.40;102423.00;;;;10410503;28;20221;-75
2021/03/05 16:30:58;;;;;;;3.77;1.63;;;;;6.20;102429.00;;;;10414780;28;20218;-74
2021/03/05 16:35:59;;;;;;;3.57;1.17;;;;;6.10;102431.00;;;;10414813;28;20281;-74
2021/03/05 16:41:03;;;;;;;1.70;1.30;;;;;5.90;102438.00;;;;10421567;28;20603;-75
2021/03/05 16:46:04;;;;;;;4.03;1.23;;;;;5.80;102445.00;;;;10414350;28;20226;-75
2021/03/05 16:51:06;;;;;;;1.87;1.20;;;;;5.70;102452.00;;;;10427849;28;20206;-75
2021/03/05 16:56:07;;;;;;;3.87;1.77;;;;;5.50;102450.00;;;;10449206;28;20194;-75
2021/03/05 17:01:09;;;;;;;3.57;1.33;;;;;5.40;102458.00;;;;10437049;28;20205;-74
2021/03/05 17:06:10;;;;;;;1.43;1.10;;;;;5.30;102463.00;;;;10472048;28;20277;-75
2021/03/05 17:11:13;;;;;;;3.73;1.30;;;;;5.10;102466.00;;;;10457228;28;20309;-75
2021/03/05 17:16:15;;;;;;;3.90;1.40;;;;;5.00;102476.00;;;;10403314;28;20198;-75
2021/03/05 17:21:17;;;;;;;4.37;1.30;;;;;4.80;102478.00;;;;10420515;28;20175;-75
2021/03/05 17:26:18;;;;;;;4.03;1.50;;;;;4.70;102491.00;;;;10420370;28;20248;-75
2021/03/05 17:31:19;;;;;;;1.50;1.30;;;;;4.50;102500.00;;;;10431170;28;20260;-75
2021/03/05 17:36:21;;;;;;;5.07;1.53;;;;;4.30;102504.00;;;;10420261;28;20652;-75
2021/03/05 17:41:22;;;;;;;2.93;1.70;;;;;4.00;102504.00;;;;10395650;28;20527;-75
2021/03/05 17:46:24;;;;;;;4.37;1.47;;;;;3.80;102518.00;;;;10424089;28;20241;-75
2021/03/05 17:51:28;;;;;;;3.03;2.00;;;;;3.60;102525.00;;;;10425073;28;20203;-75
2021/03/05 17:56:30;;;;;;;4.43;1.93;;;;;3.50;102525.00;;;;10464513;28;20860;-76
2021/03/05 18:01:33;;;;;;;5.07;2.80;;;;;3.30;102529.00;;;;10444767;28;20194;-77
2021/03/05 18:06:35;;;;;;;9.50;4.53;;;;;3.10;102533.00;;;;10443253;28;20213;-75
2021/03/05 18:11:37;;;;;;;12.60;6.60;;;;;3.00;102536.00;;;;10437860;28;20271;-75
2021/03/05 18:16:56;;;;;;;13.63;7.43;;;;;2.80;102551.00;;;;10433396;28;20194;-75
2021/03/05 18:21:57;;;;;;;13.97;7.20;;;;;2.70;102557.00;;;;10441478;28;20192;-75
2021/03/05 18:26:59;;;;;;;15.40;7.20;;;;;2.50;102568.00;;;;10446672;28;20242;-75
2021/03/05 18:32:01;;;;;;;14.27;6.40;;;;;2.40;102571.00;;;;10457874;28;20237;-75
2021/03/05 18:37:03;;;;;;;10.93;4.97;;;;;2.30;102575.00;;;;10442787;28;20194;-75
2021/03/05 18:42:05;;;;;;;6.50;4.00;;;;;2.20;102577.00;;;;10453460;28;20237;-76
2021/03/05 18:47:06;;;;;;;9.73;5.13;;;;;2.10;102581.00;;;;10446698;28;20257;-76
2021/03/05 18:52:11;;;;;;;7.10;4.27;;;;;2.00;102586.00;;;;10422484;28;20676;-76
2021/03/05 18:57:13;;;;;;;8.03;3.70;;;;;1.90;102593.00;;;;10454495;28;20190;-76
2021/03/05 19:02:14;;;;;;;5.60;4.07;;;;;1.80;102601.00;;;;10424644;28;20833;-76
2021/03/05 19:07:17;;;;;;;11.10;5.17;;;;;1.70;102606.00;;;;10424530;28;20285;-75
2021/03/05 19:12:18;;;;;;;9.70;5.97;;;;;1.60;102612.00;;;;10422644;28;20219;-76
2021/03/05 19:17:20;;;;;;;10.17;6.57;;;;;1.50;102611.00;;;;10455385;28;20290;-76
2021/03/05 19:22:34;;;;;;;16.37;7.10;;;;;1.40;102621.00;;;;10396763;28;20673;-76
2021/03/05 19:27:35;;;;;;;10.00;5.80;;;;;1.30;102616.00;;;;10443334;28;20225;-76
2021/03/05 19:32:38;;;;;;;11.13;6.90;;;;;1.20;102615.00;;;;10455347;28;20216;-76
2021/03/05 19:37:39;;;;;;;8.60;5.87;;;;;1.10;102613.00;;;;10455019;28;20831;-75
2021/03/05 19:42:41;;;;;;;7.83;5.93;;;;;1.00;102620.00;;;;10446940;28;20206;-75
2021/03/05 19:47:42;;;;;;;8.60;5.63;;;;;0.90;102628.00;;;;10455639;28;20519;-75
2021/03/05 19:52:56;;;;;;;19.70;8.13;;;;;0.80;102643.00;;;;10440077;28;20296;-75
2021/03/05 19:57:57;;;;;;;16.70;8.47;;;;;0.60;102634.00;;;;10436044;28;20202;-74
2021/03/05 20:03:01;;;;;;;16.03;7.77;;;;;0.50;102650.00;;;;10393559;28;20285;-75
2021/03/05 20:08:04;;;;;;;11.93;7.00;;;;;0.40;102653.00;;;;10440677;28;20213;-76
2021/03/05 20:13:06;;;;;;;13.87;7.90;;;;;0.30;102656.00;;;;10431401;28;20867;-76
2021/03/05 20:18:08;;;;;;;14.27;8.67;;;;;0.20;102670.00;;;;10464926;28;20580;-76
2021/03/05 20:23:28;;;;;;;12.13;7.30;;;;;0.00;102655.00;;;;10420452;28;20246;-76
2021/03/05 20:28:31;;;;;;;10.80;6.67;;;;;-0.10;102677.00;;;;10402450;28;20218;-76
2021/03/05 20:33:32;;;;;;;11.83;7.80;;;;;-0.10;102673.00;;;;10449339;28;20199;-76
2021/03/05 20:38:34;;;;;;;12.67;8.53;;;;;-0.20;102684.00;;;;10437792;28;20664;-76
2021/03/05 20:43:36;;;;;;;12.40;7.53;;;;;-0.30;102687.00;;;;10392985;28;20194;-76
2021/03/05 20:48:37;;;;;;;13.03;8.17;;;;;-0.40;102704.00;;;;10451928;28;20304;-76
2021/03/05 20:53:43;;;;;;;17.20;9.47;;;;;-0.50;102698.00;;;;10452889;28;20285;-76
2021/03/05 20:58:44;;;;;;;13.63;9.67;;;;;-0.50;102708.00;;;;10403762;28;20297;-76
2021/03/05 21:03:46;;;;;;;10.27;6.93;;;;;-0.50;102712.00;;;;10427571;28;20330;-75
2021/03/05 21:08:48;;;;;;;11.97;7.33;;;;;-0.70;102713.00;;;;10436144;28;20301;-75
2021/03/05 21:13:49;;;;;;;10.43;7.17;;;;;-0.80;102710.00;;;;10421334;28;20222;-75
2021/03/05 21:18:51;;;;;;;13.07;6.93;;;;;-0.90;102719.00;;;;10435535;28;20222;-75
2021/03/05 21:24:06;;;;;;;17.73;8.57;;;;;-1.00;102717.00;;;;10427058;28;20199;-75
2021/03/05 21:29:07;;;;;;;14.00;9.23;;;;;-1.10;102717.00;;;;10433068;28;20199;-75
2021/03/05 21:34:09;;;;;;;17.50;9.83;;;;;-1.20;102722.00;;;;10415324;28;20245;-75
2021/03/05 21:39:10;;;;;;;16.23;8.60;;;;;-1.20;102717.00;;;;10449444;28;20536;-75
2021/03/05 21:44:11;;;;;;;15.93;10.07;;;;;-1.30;102717.00;;;;10419441;28;20234;-75
2021/03/05 21:49:14;;;;;;;14.07;9.90;;;;;-1.30;102724.00;;;;10453230;28;20194;-75
2021/03/05 21:54:31;;;;;;;15.07;9.70;;;;;-1.30;102731.00;;;;10402321;28;20281;-75
2021/03/05 21:59:32;;;;;;;14.53;9.60;;;;;-1.40;102736.00;;;;10441432;28;21079;-75
2021/03/05 22:04:35;;;;;;;13.93;9.63;;;;;-1.40;102741.00;;;;10430143;28;20746;-75
2021/03/05 22:09:50;;;;;;;16.63;10.00;;;;;-1.40;102742.00;;;;10460846;28;20190;-75
2021/03/05 22:14:51;;;;;;;20.30;10.87;;;;;-1.50;102728.00;;;;10445559;28;20301;-75
2021/03/05 22:19:53;;;;;;;18.50;11.10;;;;;-1.50;102745.00;;;;10457085;28;20190;-75
2021/03/05 22:24:54;;;;;;;20.47;12.60;;;;;-1.50;102747.00;;;;10449172;28;20256;-75
2021/03/05 22:29:55;;;;;;;18.27;11.03;;;;;-1.60;102744.00;;;;10397398;28;20252;-75
2021/03/05 22:34:57;;;;;;;13.90;10.27;;;;;-1.60;102745.00;;;;10422927;28;20836;-75
2021/03/05 22:39:58;;;;;;;14.53;9.47;;;;;-1.70;102744.00;;;;10434150;28;20202;-76
2021/03/05 22:45:02;;;;;;;14.83;8.63;;;;;-1.70;102752.00;;;;10423274;28;20202;-75
2021/03/05 22:50:04;;;;;;;10.53;7.87;;;;;-1.70;102752.00;;;;10409825;28;20191;-75
2021/03/05 22:55:16;;;;;;;12.93;8.13;;;;;-1.60;102754.00;;;;10409163;28;20202;-75
2021/03/05 23:00:24;;;;;;;13.50;8.27;;;;;-1.70;102763.00;;;;10443779;28;20232;-75
2021/03/05 23:05:26;;;;;;;16.73;8.90;;;;;-1.70;102750.00;;;;10450260;28;20194;-75
2021/03/05 23:10:31;;;;;;;23.50;10.80;;;;;-1.70;102752.00;;;;10442171;28;20209;-75
2021/03/05 23:15:34;;;;;;;19.47;10.80;;;;;-1.80;102755.00;;;;10453043;28;20232;-76
2021/03/05 23:20:41;;;;;;;20.87;12.07;;;;;-1.80;102754.00;;;;10407938;28;20768;-75
2021/03/05 23:25:43;;;;;;;24.27;12.80;;;;;-1.90;102752.00;;;;10440509;28;20198;-75
2021/03/05 23:30:45;;;;;;;20.20;10.83;;;;;-1.90;102743.00;;;;10436873;28;20238;-75
2021/03/05 23:35:46;;;;;;;23.80;12.77;;;;;-2.00;102739.00;;;;10440497;28;20198;-75
2021/03/05 23:40:49;;;;;;;21.30;12.00;;;;;-2.00;102747.00;;;;10415917;28;20210;-75
2021/03/05 23:45:50;;;;;;;18.37;11.90;;;;;-2.00;102758.00;;;;10440552;28;20722;-76
2021/03/05 23:50:51;;;;;;;20.37;10.83;;;;;-2.00;102755.00;;;;10399128;28;20266;-76
2021/03/05 23:55:59;;;;;;;33.27;12.07;;;;;-2.10;102754.00;;;;10433111;28;20279;-76
